Stations météo

Publicité
Lons-Le-Saunier, France (7390): Température de l'air & dewpoint: 18.01.2019 12:00:00 - 24.01.2019 12:00:00 (CET)Lons-Le-Saunier, France (7390): Vitesse du vent & gusts: 18.01.2019 12:00:00 - 24.01.2019 12:00:00 (CET)Lons-Le-Saunier, France (7390): Direction du vent: 18.01.2019 12:00:00 - 24.01.2019 12:00:00 (CET)Lons-Le-Saunier, France (7390): Quantités de précipitations: 18.01.2019 12:00:00 - 24.01.2019 12:00:00 (CET)
Date & Time tt [°C] td [°C] ff [km/h] ff [knt] fx [km/h] fx [knt] dd rr [mm]
24.01.2019 12:00:00 -0,1 -3,5 8 4 16 9 N 0,0
24.01.2019 11:00:00 -1,4 -3,6 8 4 21 11 NNE 0,0
24.01.2019 10:00:00 -1,6 -3,6 15 8 28 15 N 0,0
24.01.2019 09:00:00 -1,3 -3,0 13 7 26 14 N 0,0
24.01.2019 08:00:00 -1,1 -2,7 15 8 28 15 N 0,0
24.01.2019 07:00:00 -1,0 -2,3 15 8 26 14 N -
24.01.2019 06:00:00 -0,9 -2,0 13 7 29 16 N 0,0
24.01.2019 05:00:00 -0,7 -1,7 15 8 29 16 N 0,0
24.01.2019 04:00:00 -0,4 -1,0 15 8 26 14 N 0,0
24.01.2019 03:00:00 -0,1 -0,5 16 9 24 13 N 0,0
24.01.2019 02:00:00 0,0 -0,3 15 8 26 14 N 0,0
24.01.2019 01:00:00 0,0 -0,3 15 8 24 13 N -
24.01.2019 00:00:00 -0,2 -0,6 13 7 22 12 N 0,0
23.01.2019 23:00:00 -0,3 -0,9 11 6 18 10 NNW 0,0
23.01.2019 22:00:00 -0,2 -0,6 8 4 11 6 N 0,0
23.01.2019 21:00:00 0,0 -0,7 8 4 13 7 N 0,0
23.01.2019 20:00:00 -0,3 -0,4 8 4 11 6 NE 0,0
23.01.2019 19:00:00 -0,1 -0,2 2 1 9 5 WNW -
23.01.2019 18:00:00 0,1 0,0 4 2 11 6 N 0,0
23.01.2019 17:00:00 0,3 0,3 5 3 11 6 NW 0,2
23.01.2019 16:00:00 0,3 0,2 8 4 15 8 NW 0,0
23.01.2019 15:00:00 0,5 0,2 8 4 11 6 WNW 0,0
23.01.2019 14:00:00 0,5 0,4 4 2 18 10 W 0,0
23.01.2019 13:00:00 0,1 0,0 9 5 18 10 WSW -
23.01.2019 12:00:00 0,1 0,0 9 5 16 9 SW 0,6
23.01.2019 11:00:00 0,1 0,0 4 2 9 5 WSW 0,2
23.01.2019 10:00:00 0,1 0,1 4 2 22 12 S 0,2
23.01.2019 09:00:00 -0,2 -0,2 4 2 22 12 S 0,0
23.01.2019 08:00:00 -0,3 -0,3 5 3 21 11 SSE 0,4
23.01.2019 07:00:00 -0,4 -0,5 5 3 13 7 S -
23.01.2019 06:00:00 -0,5 -0,6 8 4 13 7 SE 0,0
23.01.2019 05:00:00 -0,7 -0,8 11 6 16 9 SE 0,0
23.01.2019 04:00:00 -0,4 -0,4 9 5 18 10 S 0,0
23.01.2019 03:00:00 -0,3 -0,3 13 7 29 16 S 0,0
23.01.2019 02:00:00 -0,6 -0,6 8 4 15 8 S 0,2
23.01.2019 01:00:00 -0,6 -0,6 8 4 15 8 S -
23.01.2019 00:00:00 -0,6 -0,7 8 4 13 7 S 0,6
22.01.2019 23:00:00 -0,7 -1,0 5 3 18 10 S 0,2
22.01.2019 22:00:00 -0,3 -1,6 9 5 16 9 SSW 0,0
22.01.2019 21:00:00 0,1 -1,8 11 6 18 10 SSE 0,0
22.01.2019 20:00:00 -0,8 -2,2 8 4 11 6 SSE 0,0
22.01.2019 19:00:00 -1,0 -2,3 8 4 9 5 SSE -
22.01.2019 18:00:00 -0,8 -2,2 2 1 16 9 SW 0,0
22.01.2019 17:00:00 -0,5 -1,9 11 6 18 10 SSE 0,0
22.01.2019 16:00:00 0,2 -1,7 8 4 16 9 SW 0,0
22.01.2019 15:00:00 0,2 -1,7 8 4 16 9 WSW 0,0
22.01.2019 14:00:00 0,0 -1,9 9 5 18 10 WSW 0,0
22.01.2019 13:00:00 -0,5 -2,4 13 7 21 11 SW -
22.01.2019 12:00:00 -1,2 -3,1 9 5 18 10 SW 0,0
22.01.2019 11:00:00 -1,5 -3,1 11 6 22 12 SW 0,0
22.01.2019 10:00:00 -1,8 -3,7 11 6 18 10 SW 0,0
22.01.2019 09:00:00 -2,0 -2,7 8 4 11 6 SSW 0,0
22.01.2019 08:00:00 -2,1 -2,7 5 3 13 7 SSW 0,0
22.01.2019 07:00:00 -2,0 -2,7 8 4 16 9 WSW -
22.01.2019 06:00:00 -1,6 -2,4 8 4 16 9 W 0,0
22.01.2019 05:00:00 -1,6 -2,0 8 4 9 5 WSW 0,0
22.01.2019 04:00:00 -1,6 -1,9 4 2 5 3 SSW 0,0
22.01.2019 03:00:00 -1,7 -2,0 2 1 16 9 W 0,0
22.01.2019 02:00:00 -1,6 -1,6 13 7 22 12 NW 0,0
22.01.2019 01:00:00 -1,4 -1,4 13 7 18 10 WNW -
22.01.2019 00:00:00 -1,3 -1,3 4 2 18 10 NNW 0,0
21.01.2019 23:00:00 -1,4 -1,4 11 6 18 10 NNW 0,0
21.01.2019 22:00:00 -1,3 -1,3 15 8 22 12 NW 0,0
21.01.2019 21:00:00 -0,9 -0,9 11 6 16 9 NNW 0,0
21.01.2019 20:00:00 -0,8 -0,8 9 5 22 12 NNW 0,0
21.01.2019 19:00:00 -0,7 -0,8 13 7 24 13 NNW -
21.01.2019 18:00:00 0,0 -0,7 13 7 21 11 NW 0,0
21.01.2019 17:00:00 0,4 -0,7 11 6 21 11 N 0,0
21.01.2019 16:00:00 0,3 -1,1 11 6 18 10 NNW 0,0
21.01.2019 15:00:00 0,6 -1,0 9 5 22 12 NNE 0,0
21.01.2019 14:00:00 0,5 -1,0 13 7 22 12 N 0,0
21.01.2019 13:00:00 0,7 -0,6 11 6 22 12 N -
21.01.2019 12:00:00 0,8 -0,2 11 6 21 11 N 0,0
21.01.2019 11:00:00 0,4 -0,2 13 7 18 10 N 0,0
21.01.2019 10:00:00 0,1 0,0 11 6 18 10 N 0,0
21.01.2019 09:00:00 0,0 0,0 13 7 18 10 N 0,0
21.01.2019 08:00:00 0,1 0,0 8 4 16 9 N 0,0
21.01.2019 07:00:00 0,3 0,0 11 6 15 8 N -
21.01.2019 06:00:00 0,8 0,4 9 5 16 9 N 0,0
21.01.2019 05:00:00 1,1 1,1 8 4 18 10 N 0,0
21.01.2019 04:00:00 1,5 1,5 5 3 13 7 NNW 0,0
21.01.2019 03:00:00 1,6 1,6 4 2 9 5 NW 0,0
21.01.2019 02:00:00 1,6 1,6 8 4 11 6 NNW 0,0
21.01.2019 01:00:00 1,7 1,7 5 3 13 7 NW -
21.01.2019 00:00:00 1,9 1,8 9 5 15 8 NNW 0,0
20.01.2019 23:00:00 1,9 1,6 4 2 9 5 NNW 0,0
20.01.2019 22:00:00 2,1 1,7 4 2 11 6 NNW 0,0
20.01.2019 21:00:00 2,2 1,5 4 2 9 5 NW 0,0
20.01.2019 20:00:00 2,7 1,2 5 3 8 4 NE 0,0
20.01.2019 19:00:00 2,7 1,4 5 3 13 7 E -
20.01.2019 18:00:00 2,6 1,6 11 6 16 9 N 0,0
20.01.2019 17:00:00 3,8 1,8 8 4 9 5 WNW 0,0
20.01.2019 16:00:00 5,0 2,0 0 0 8 4 N 0,0
20.01.2019 15:00:00 4,4 1,8 4 2 13 7 SSW 0,0
20.01.2019 14:00:00 4,2 1,4 8 4 13 7 W 0,0
20.01.2019 13:00:00 3,8 1,0 4 2 15 8 W -
20.01.2019 12:00:00 3,2 0,9 9 5 18 10 SSW 0,0
20.01.2019 11:00:00 1,2 0,5 8 4 15 8 SE 0,0
20.01.2019 10:00:00 -1,1 -1,2 8 4 9 5 SE 0,0
20.01.2019 09:00:00 -0,7 -0,8 4 2 16 9 SSW 0,0
20.01.2019 08:00:00 -0,4 -1,0 8 4 13 7 W 0,0
20.01.2019 07:00:00 -0,6 -0,9 4 2 8 4 E -
20.01.2019 06:00:00 -0,6 -0,9 2 1 8 4 S 0,0
20.01.2019 05:00:00 -1,6 -1,7 2 1 15 8 NNW 0,0
20.01.2019 04:00:00 0,2 -0,1 9 5 18 10 SE 0,2
20.01.2019 03:00:00 -1,4 -1,5 8 4 15 8 NE 0,4
20.01.2019 02:00:00 -0,6 -0,9 5 3 9 5 E 0,0
20.01.2019 01:00:00 -1,8 -1,8 8 4 11 6 SE -
20.01.2019 00:00:00 -2,4 -2,4 8 4 9 5 ESE 0,0
19.01.2019 23:00:00 -2,7 -2,8 2 1 9 5 SSE 0,0
19.01.2019 22:00:00 -2,5 -2,6 8 4 9 5 W 0,0
19.01.2019 21:00:00 -2,4 -2,7 5 3 8 4 NNW 0,0
19.01.2019 20:00:00 -2,1 -2,4 5 3 9 5 NE 0,0
19.01.2019 19:00:00 -1,6 -2,0 4 2 5 3 NNE -
19.01.2019 18:00:00 -1,2 -1,9 5 3 9 5 NNW 0,0
19.01.2019 17:00:00 0,5 -1,0 2 1 5 3 WSW 0,0
19.01.2019 16:00:00 0,4 -0,9 4 2 13 7 NNW 0,0
19.01.2019 15:00:00 1,8 -0,9 5 3 11 6 W 0,0
19.01.2019 14:00:00 0,2 -1,1 8 4 13 7 W 0,0
19.01.2019 13:00:00 -0,5 -1,5 9 5 13 7 W -
19.01.2019 12:00:00 -0,3 -1,9 8 4 13 7 W 0,0
19.01.2019 11:00:00 -0,5 -2,4 0 0 5 3 N 0,0
19.01.2019 10:00:00 -3,7 -4,4 4 2 9 5 WNW 0,0
19.01.2019 09:00:00 -3,5 -5,2 8 4 11 6 ESE 0,0
19.01.2019 08:00:00 -4,0 -5,5 9 5 13 7 SE 0,0
19.01.2019 07:00:00 -3,7 -5,0 9 5 15 8 SE -
19.01.2019 06:00:00 -3,8 -4,2 9 5 13 7 ESE 0,0
19.01.2019 05:00:00 -3,2 -3,9 4 2 9 5 SSE 0,0
19.01.2019 04:00:00 -2,9 -3,3 8 4 11 6 SE 0,0
19.01.2019 03:00:00 -2,6 -3,2 4 2 11 6 SE 0,0
19.01.2019 02:00:00 -2,7 -3,2 5 3 11 6 SE 0,0
19.01.2019 01:00:00 -2,5 -2,9 5 3 9 5 SSE -
19.01.2019 00:00:00 -2,4 -2,7 9 5 11 6 S 0,0
18.01.2019 23:00:00 -2,3 -2,6 8 4 13 7 S 0,0
18.01.2019 22:00:00 -1,5 -2,3 5 3 8 4 SSW 0,0
18.01.2019 21:00:00 -1,1 -2,4 4 2 5 3 SW 0,0
18.01.2019 20:00:00 -0,2 -2,3 2 1 8 4 SW 0,0
18.01.2019 19:00:00 0,3 -2,1 5 3 13 7 NNW -
18.01.2019 18:00:00 0,9 -1,8 8 4 18 10 NNW 0,0
18.01.2019 17:00:00 1,5 -1,7 9 5 22 12 NW 0,0
18.01.2019 16:00:00 2,0 -1,6 13 7 26 14 NNW 0,0
18.01.2019 15:00:00 2,0 -1,8 18 10 26 14 NNE 0,0
18.01.2019 14:00:00 2,1 -1,3 15 8 24 13 N 0,0
18.01.2019 13:00:00 2,4 -0,9 13 7 26 14 N -
18.01.2019 12:00:00 1,9 -0,7 13 7 24 13 N 0,0

tt = Température de l'air
td = dewpoint
ff = Vitesse du vent
fx = gusts
dd = Direction du vent
rr = Quantités de précipitations

stations d'obs. à proximité